sensor_id;sensor_type;location;lat;lon;timestamp;P1;durP1;ratioP1;P2;durP2;ratioP2
53439;SDS011;39333;47.044;15.080;2022-08-19T00:01:32;63.85;;;60.80;;
53439;SDS011;39333;47.044;15.080;2022-08-19T00:04:04;58.33;;;55.33;;
53439;SDS011;39333;47.044;15.080;2022-08-19T00:06:34;59.22;;;56.17;;
53439;SDS011;39333;47.044;15.080;2022-08-19T00:09:03;59.28;;;56.25;;
53439;SDS011;39333;47.044;15.080;2022-08-19T00:11:31;60.22;;;57.22;;
53439;SDS011;39333;47.044;15.080;2022-08-19T00:13:59;56.85;;;54.05;;
53439;SDS011;39333;47.044;15.080;2022-08-19T00:16:26;57.80;;;55.20;;
53439;SDS011;39333;47.044;15.080;2022-08-19T00:18:53;56.72;;;53.90;;
53439;SDS011;39333;47.044;15.080;2022-08-19T00:21:25;57.03;;;54.05;;
53439;SDS011;39333;47.044;15.080;2022-08-19T00:23:53;70.57;;;67.18;;
53439;SDS011;39333;47.044;15.080;2022-08-19T00:26:24;61.85;;;58.92;;
53439;SDS011;39333;47.044;15.080;2022-08-19T00:28:52;54.50;;;51.78;;
53439;SDS011;39333;47.044;15.080;2022-08-19T00:31:20;58.80;;;55.90;;
53439;SDS011;39333;47.044;15.080;2022-08-19T00:33:47;62.13;;;59.22;;
53439;SDS011;39333;47.044;15.080;2022-08-19T00:36:15;57.20;;;54.50;;
53439;SDS011;39333;47.044;15.080;2022-08-19T00:38:42;72.18;;;68.72;;
53439;SDS011;39333;47.044;15.080;2022-08-19T00:41:12;68.72;;;65.22;;
53439;SDS011;39333;47.044;15.080;2022-08-19T00:43:41;68.10;;;64.88;;
53439;SDS011;39333;47.044;15.080;2022-08-19T00:46:08;63.97;;;60.67;;
53439;SDS011;39333;47.044;15.080;2022-08-19T00:48:35;63.47;;;60.42;;
53439;SDS011;39333;47.044;15.080;2022-08-19T00:51:03;63.28;;;59.90;;
53439;SDS011;39333;47.044;15.080;2022-08-19T00:53:31;59.13;;;55.85;;
53439;SDS011;39333;47.044;15.080;2022-08-19T00:56:00;55.45;;;52.75;;
53439;SDS011;39333;47.044;15.080;2022-08-19T00:58:29;57.80;;;54.90;;
53439;SDS011;39333;47.044;15.080;2022-08-19T01:00:59;60.08;;;57.08;;
53439;SDS011;39333;47.044;15.080;2022-08-19T01:03:27;67.82;;;64.40;;
53439;SDS011;39333;47.044;15.080;2022-08-19T01:06:14;60.00;;;56.95;;
53439;SDS011;39333;47.044;15.080;2022-08-19T01:08:46;56.47;;;53.45;;
53439;SDS011;39333;47.044;15.080;2022-08-19T01:11:15;57.92;;;55.10;;
53439;SDS011;39333;47.044;15.080;2022-08-19T01:13:43;60.28;;;57.17;;
53439;SDS011;39333;47.044;15.080;2022-08-19T01:16:15;70.13;;;66.82;;
53439;SDS011;39333;47.044;15.080;2022-08-19T01:18:45;70.63;;;67.28;;
53439;SDS011;39333;47.044;15.080;2022-08-19T01:21:31;63.45;;;60.25;;
53439;SDS011;39333;47.044;15.080;2022-08-19T01:24:02;70.57;;;67.07;;
53439;SDS011;39333;47.044;15.080;2022-08-19T01:26:29;60.92;;;58.03;;
53439;SDS011;39333;47.044;15.080;2022-08-19T01:28:58;58.75;;;55.80;;
53439;SDS011;39333;47.044;15.080;2022-08-19T01:31:27;63.10;;;59.78;;
53439;SDS011;39333;47.044;15.080;2022-08-19T01:33:58;65.55;;;62.65;;
53439;SDS011;39333;47.044;15.080;2022-08-19T01:36:29;61.00;;;58.25;;
53439;SDS011;39333;47.044;15.080;2022-08-19T01:38:59;55.88;;;52.78;;
53439;SDS011;39333;47.044;15.080;2022-08-19T01:41:27;55.03;;;52.33;;
53439;SDS011;39333;47.044;15.080;2022-08-19T01:43:54;67.07;;;64.07;;
53439;SDS011;39333;47.044;15.080;2022-08-19T01:46:42;56.13;;;53.38;;
53439;SDS011;39333;47.044;15.080;2022-08-19T01:49:09;63.03;;;59.30;;
53439;SDS011;39333;47.044;15.080;2022-08-19T01:51:37;62.95;;;59.80;;
53439;SDS011;39333;47.044;15.080;2022-08-19T01:54:06;60.85;;;57.95;;
53439;SDS011;39333;47.044;15.080;2022-08-19T01:56:34;55.67;;;52.97;;
53439;SDS011;39333;47.044;15.080;2022-08-19T01:59:03;71.20;;;67.55;;
53439;SDS011;39333;47.044;15.080;2022-08-19T02:01:32;68.80;;;65.47;;
53439;SDS011;39333;47.044;15.080;2022-08-19T02:04:00;60.10;;;57.20;;
53439;SDS011;39333;47.044;15.080;2022-08-19T02:06:28;67.40;;;64.13;;
53439;SDS011;39333;47.044;15.080;2022-08-19T02:08:55;64.00;;;60.90;;
53439;SDS011;39333;47.044;15.080;2022-08-19T02:11:24;62.53;;;59.40;;
53439;SDS011;39333;47.044;15.080;2022-08-19T02:13:54;67.40;;;64.15;;
53439;SDS011;39333;47.044;15.080;2022-08-19T02:16:21;61.97;;;58.88;;
53439;SDS011;39333;47.044;15.080;2022-08-19T02:18:48;65.15;;;62.17;;
53439;SDS011;39333;47.044;15.080;2022-08-19T02:21:16;64.90;;;61.90;;
53439;SDS011;39333;47.044;15.080;2022-08-19T02:23:43;60.38;;;57.47;;
53439;SDS011;39333;47.044;15.080;2022-08-19T02:26:11;61.63;;;58.28;;
53439;SDS011;39333;47.044;15.080;2022-08-19T02:28:39;63.67;;;60.78;;
53439;SDS011;39333;47.044;15.080;2022-08-19T02:31:09;63.90;;;61.00;;
53439;SDS011;39333;47.044;15.080;2022-08-19T02:33:37;60.30;;;57.50;;
53439;SDS011;39333;47.044;15.080;2022-08-19T02:36:04;57.08;;;54.38;;
53439;SDS011;39333;47.044;15.080;2022-08-19T02:38:31;61.35;;;58.45;;
53439;SDS011;39333;47.044;15.080;2022-08-19T02:41:00;57.15;;;54.25;;
53439;SDS011;39333;47.044;15.080;2022-08-19T02:43:31;66.05;;;63.20;;
53439;SDS011;39333;47.044;15.080;2022-08-19T02:46:15;67.00;;;63.80;;
53439;SDS011;39333;47.044;15.080;2022-08-19T02:48:48;60.78;;;57.97;;
53439;SDS011;39333;47.044;15.080;2022-08-19T02:51:18;62.35;;;58.95;;
53439;SDS011;39333;47.044;15.080;2022-08-19T02:53:45;59.25;;;56.38;;
53439;SDS011;39333;47.044;15.080;2022-08-19T02:56:12;58.85;;;55.95;;
53439;SDS011;39333;47.044;15.080;2022-08-19T02:58:40;59.67;;;56.97;;
53439;SDS011;39333;47.044;15.080;2022-08-19T03:01:08;60.22;;;57.33;;
53439;SDS011;39333;47.044;15.080;2022-08-19T03:03:37;63.78;;;60.67;;
53439;SDS011;39333;47.044;15.080;2022-08-19T03:06:11;63.47;;;60.22;;
53439;SDS011;39333;47.044;15.080;2022-08-19T03:08:40;64.82;;;61.83;;
53439;SDS011;39333;47.044;15.080;2022-08-19T03:11:13;69.15;;;65.57;;
53439;SDS011;39333;47.044;15.080;2022-08-19T03:13:45;58.10;;;55.10;;
53439;SDS011;39333;47.044;15.080;2022-08-19T03:16:12;66.18;;;63.25;;
53439;SDS011;39333;47.044;15.080;2022-08-19T03:18:39;56.65;;;53.80;;
53439;SDS011;39333;47.044;15.080;2022-08-19T03:21:06;63.70;;;60.33;;
53439;SDS011;39333;47.044;15.080;2022-08-19T03:23:37;59.30;;;56.17;;
53439;SDS011;39333;47.044;15.080;2022-08-19T03:26:05;64.60;;;61.70;;
53439;SDS011;39333;47.044;15.080;2022-08-19T03:28:43;67.15;;;63.80;;
53439;SDS011;39333;47.044;15.080;2022-08-19T03:31:23;60.83;;;57.85;;
53439;SDS011;39333;47.044;15.080;2022-08-19T03:34:13;63.58;;;60.45;;
53439;SDS011;39333;47.044;15.080;2022-08-19T03:36:44;68.07;;;64.57;;
53439;SDS011;39333;47.044;15.080;2022-08-19T03:39:12;63.80;;;60.60;;
53439;SDS011;39333;47.044;15.080;2022-08-19T03:41:40;67.57;;;64.38;;
53439;SDS011;39333;47.044;15.080;2022-08-19T03:44:15;58.63;;;55.83;;
53439;SDS011;39333;47.044;15.080;2022-08-19T03:46:54;64.50;;;61.50;;
53439;SDS011;39333;47.044;15.080;2022-08-19T03:49:25;66.43;;;63.47;;
53439;SDS011;39333;47.044;15.080;2022-08-19T03:51:55;64.82;;;61.50;;
53439;SDS011;39333;47.044;15.080;2022-08-19T03:54:25;60.67;;;57.97;;
53439;SDS011;39333;47.044;15.080;2022-08-19T03:56:54;72.38;;;69.18;;
53439;SDS011;39333;47.044;15.080;2022-08-19T03:59:25;67.15;;;63.85;;
53439;SDS011;39333;47.044;15.080;2022-08-19T04:01:54;62.17;;;59.40;;
53439;SDS011;39333;47.044;15.080;2022-08-19T04:04:23;66.15;;;63.20;;
53439;SDS011;39333;47.044;15.080;2022-08-19T04:06:54;69.85;;;66.72;;
53439;SDS011;39333;47.044;15.080;2022-08-19T04:09:21;61.78;;;59.05;;
53439;SDS011;39333;47.044;15.080;2022-08-19T04:11:49;61.70;;;58.90;;
53439;SDS011;39333;47.044;15.080;2022-08-19T04:14:22;69.70;;;66.60;;
53439;SDS011;39333;47.044;15.080;2022-08-19T04:16:51;58.92;;;56.42;;
53439;SDS011;39333;47.044;15.080;2022-08-19T04:19:19;62.75;;;59.97;;
53439;SDS011;39333;47.044;15.080;2022-08-19T04:21:47;66.45;;;63.38;;
53439;SDS011;39333;47.044;15.080;2022-08-19T04:24:16;67.15;;;64.25;;
53439;SDS011;39333;47.044;15.080;2022-08-19T04:26:44;65.13;;;62.30;;
53439;SDS011;39333;47.044;15.080;2022-08-19T04:29:13;62.53;;;59.53;;
53439;SDS011;39333;47.044;15.080;2022-08-19T04:31:42;57.28;;;54.65;;
53439;SDS011;39333;47.044;15.080;2022-08-19T04:34:12;52.88;;;50.47;;
53439;SDS011;39333;47.044;15.080;2022-08-19T04:36:42;57.30;;;54.47;;
53439;SDS011;39333;47.044;15.080;2022-08-19T04:39:15;65.78;;;62.78;;
53439;SDS011;39333;47.044;15.080;2022-08-19T04:41:43;56.95;;;54.50;;
53439;SDS011;39333;47.044;15.080;2022-08-19T04:47:00;60.05;;;57.42;;
53439;SDS011;39333;47.044;15.080;2022-08-19T04:49:37;58.85;;;56.15;;
53439;SDS011;39333;47.044;15.080;2022-08-19T04:52:03;56.78;;;54.25;;
53439;SDS011;39333;47.044;15.080;2022-08-19T04:54:30;68.55;;;65.55;;
53439;SDS011;39333;47.044;15.080;2022-08-19T04:57:05;59.33;;;56.72;;
53439;SDS011;39333;47.044;15.080;2022-08-19T04:59:37;65.20;;;62.40;;
53439;SDS011;39333;47.044;15.080;2022-08-19T05:02:04;61.58;;;58.88;;
53439;SDS011;39333;47.044;15.080;2022-08-19T05:04:33;54.78;;;52.53;;
53439;SDS011;39333;47.044;15.080;2022-08-19T05:07:01;57.72;;;55.13;;
53439;SDS011;39333;47.044;15.080;2022-08-19T05:09:31;61.08;;;58.38;;
53439;SDS011;39333;47.044;15.080;2022-08-19T05:12:18;54.60;;;52.10;;
53439;SDS011;39333;47.044;15.080;2022-08-19T05:14:45;60.75;;;58.20;;
53439;SDS011;39333;47.044;15.080;2022-08-19T05:17:14;60.45;;;57.75;;
53439;SDS011;39333;47.044;15.080;2022-08-19T05:20:01;62.08;;;59.50;;
53439;SDS011;39333;47.044;15.080;2022-08-19T05:22:49;56.05;;;53.50;;
53439;SDS011;39333;47.044;15.080;2022-08-19T05:25:17;57.83;;;55.33;;
53439;SDS011;39333;47.044;15.080;2022-08-19T05:27:46;58.20;;;55.70;;
53439;SDS011;39333;47.044;15.080;2022-08-19T05:30:13;64.65;;;61.90;;
53439;SDS011;39333;47.044;15.080;2022-08-19T05:32:40;65.35;;;62.45;;
53439;SDS011;39333;47.044;15.080;2022-08-19T05:35:07;58.80;;;56.00;;
53439;SDS011;39333;47.044;15.080;2022-08-19T05:37:34;65.13;;;62.00;;
53439;SDS011;39333;47.044;15.080;2022-08-19T05:40:01;66.72;;;63.90;;
53439;SDS011;39333;47.044;15.080;2022-08-19T05:42:29;64.25;;;61.25;;
53439;SDS011;39333;47.044;15.080;2022-08-19T05:44:57;61.17;;;58.42;;
53439;SDS011;39333;47.044;15.080;2022-08-19T05:47:24;56.70;;;54.15;;
53439;SDS011;39333;47.044;15.080;2022-08-19T05:49:50;63.72;;;61.15;;
53439;SDS011;39333;47.044;15.080;2022-08-19T05:52:18;60.08;;;57.47;;
53439;SDS011;39333;47.044;15.080;2022-08-19T05:54:51;63.40;;;60.70;;
53439;SDS011;39333;47.044;15.080;2022-08-19T05:57:22;64.90;;;61.92;;
53439;SDS011;39333;47.044;15.080;2022-08-19T05:59:49;61.75;;;58.95;;
53439;SDS011;39333;47.044;15.080;2022-08-19T06:02:27;64.15;;;61.30;;
53439;SDS011;39333;47.044;15.080;2022-08-19T06:04:57;61.35;;;58.75;;
53439;SDS011;39333;47.044;15.080;2022-08-19T06:07:24;65.53;;;62.72;;
53439;SDS011;39333;47.044;15.080;2022-08-19T06:09:51;57.88;;;55.42;;
53439;SDS011;39333;47.044;15.080;2022-08-19T06:12:27;64.30;;;61.40;;
53439;SDS011;39333;47.044;15.080;2022-08-19T06:14:58;59.65;;;56.97;;
53439;SDS011;39333;47.044;15.080;2022-08-19T06:17:26;56.33;;;53.75;;
53439;SDS011;39333;47.044;15.080;2022-08-19T06:19:53;65.72;;;62.72;;
53439;SDS011;39333;47.044;15.080;2022-08-19T06:22:20;59.83;;;57.03;;
53439;SDS011;39333;47.044;15.080;2022-08-19T06:24:46;64.80;;;61.97;;
53439;SDS011;39333;47.044;15.080;2022-08-19T06:27:13;64.70;;;62.00;;
53439;SDS011;39333;47.044;15.080;2022-08-19T06:29:40;54.65;;;52.15;;
53439;SDS011;39333;47.044;15.080;2022-08-19T06:32:08;59.25;;;56.63;;
53439;SDS011;39333;47.044;15.080;2022-08-19T06:34:35;65.57;;;62.88;;
53439;SDS011;39333;47.044;15.080;2022-08-19T06:37:02;66.53;;;63.80;;
53439;SDS011;39333;47.044;15.080;2022-08-19T06:39:30;62.00;;;59.20;;
53439;SDS011;39333;47.044;15.080;2022-08-19T06:41:59;63.22;;;60.53;;
53439;SDS011;39333;47.044;15.080;2022-08-19T06:44:30;63.47;;;60.85;;
53439;SDS011;39333;47.044;15.080;2022-08-19T06:47:08;65.65;;;62.85;;
53439;SDS011;39333;47.044;15.080;2022-08-19T06:49:40;58.67;;;56.15;;
53439;SDS011;39333;47.044;15.080;2022-08-19T06:52:09;68.47;;;65.63;;
53439;SDS011;39333;47.044;15.080;2022-08-19T06:54:39;62.92;;;60.33;;
53439;SDS011;39333;47.044;15.080;2022-08-19T06:57:21;63.05;;;60.30;;
53439;SDS011;39333;47.044;15.080;2022-08-19T06:59:49;66.15;;;63.45;;
53439;SDS011;39333;47.044;15.080;2022-08-19T07:02:16;63.65;;;60.65;;
53439;SDS011;39333;47.044;15.080;2022-08-19T07:04:49;57.50;;;55.15;;
53439;SDS011;39333;47.044;15.080;2022-08-19T07:07:18;62.95;;;60.35;;
53439;SDS011;39333;47.044;15.080;2022-08-19T07:09:48;58.22;;;55.83;;
53439;SDS011;39333;47.044;15.080;2022-08-19T07:12:30;64.03;;;61.17;;
53439;SDS011;39333;47.044;15.080;2022-08-19T07:15:04;64.28;;;61.58;;
53439;SDS011;39333;47.044;15.080;2022-08-19T07:17:31;58.35;;;55.75;;
53439;SDS011;39333;47.044;15.080;2022-08-19T07:19:59;63.40;;;60.83;;
53439;SDS011;39333;47.044;15.080;2022-08-19T07:22:34;62.05;;;59.13;;
53439;SDS011;39333;47.044;15.080;2022-08-19T07:25:03;61.30;;;58.40;;
53439;SDS011;39333;47.044;15.080;2022-08-19T07:27:30;59.08;;;56.42;;
53439;SDS011;39333;47.044;15.080;2022-08-19T07:29:59;61.85;;;59.25;;
53439;SDS011;39333;47.044;15.080;2022-08-19T07:32:26;63.08;;;60.28;;
53439;SDS011;39333;47.044;15.080;2022-08-19T07:34:53;64.32;;;61.53;;
53439;SDS011;39333;47.044;15.080;2022-08-19T07:37:22;59.33;;;56.72;;
53439;SDS011;39333;47.044;15.080;2022-08-19T07:39:58;63.20;;;60.55;;
53439;SDS011;39333;47.044;15.080;2022-08-19T07:42:25;63.83;;;61.08;;
53439;SDS011;39333;47.044;15.080;2022-08-19T07:44:52;66.10;;;63.28;;
53439;SDS011;39333;47.044;15.080;2022-08-19T07:47:19;60.65;;;57.95;;
53439;SDS011;39333;47.044;15.080;2022-08-19T07:50:07;62.88;;;60.20;;
53439;SDS011;39333;47.044;15.080;2022-08-19T07:52:37;60.45;;;57.67;;
53439;SDS011;39333;47.044;15.080;2022-08-19T07:55:14;64.50;;;61.67;;
53439;SDS011;39333;47.044;15.080;2022-08-19T07:58:02;62.92;;;60.10;;
53439;SDS011;39333;47.044;15.080;2022-08-19T08:00:31;62.97;;;60.28;;
53439;SDS011;39333;47.044;15.080;2022-08-19T08:02:58;63.47;;;60.88;;
53439;SDS011;39333;47.044;15.080;2022-08-19T08:05:25;61.65;;;58.92;;
53439;SDS011;39333;47.044;15.080;2022-08-19T08:08:11;69.35;;;66.45;;
53439;SDS011;39333;47.044;15.080;2022-08-19T08:10:57;67.70;;;64.78;;
53439;SDS011;39333;47.044;15.080;2022-08-19T08:13:25;65.65;;;62.75;;
53439;SDS011;39333;47.044;15.080;2022-08-19T08:15:54;63.13;;;60.42;;
53439;SDS011;39333;47.044;15.080;2022-08-19T08:18:22;65.32;;;62.45;;
53439;SDS011;39333;47.044;15.080;2022-08-19T08:20:53;63.25;;;60.55;;
53439;SDS011;39333;47.044;15.080;2022-08-19T08:23:21;65.82;;;62.97;;
53439;SDS011;39333;47.044;15.080;2022-08-19T08:25:55;69.90;;;67.10;;
53439;SDS011;39333;47.044;15.080;2022-08-19T08:28:24;65.95;;;63.05;;
53439;SDS011;39333;47.044;15.080;2022-08-19T08:30:55;66.13;;;63.22;;
53439;SDS011;39333;47.044;15.080;2022-08-19T08:33:24;70.20;;;67.32;;
53439;SDS011;39333;47.044;15.080;2022-08-19T08:35:59;64.28;;;61.67;;
53439;SDS011;39333;47.044;15.080;2022-08-19T08:38:29;64.45;;;61.75;;
53439;SDS011;39333;47.044;15.080;2022-08-19T08:41:21;66.60;;;63.60;;
53439;SDS011;39333;47.044;15.080;2022-08-19T08:43:54;66.90;;;63.85;;
53439;SDS011;39333;47.044;15.080;2022-08-19T08:46:33;65.40;;;62.50;;
53439;SDS011;39333;47.044;15.080;2022-08-19T08:52:27;69.45;;;66.35;;
53439;SDS011;39333;47.044;15.080;2022-08-19T08:55:06;65.75;;;62.65;;
53439;SDS011;39333;47.044;15.080;2022-08-19T08:57:44;67.57;;;64.75;;
53439;SDS011;39333;47.044;15.080;2022-08-19T09:00:17;69.35;;;66.45;;
53439;SDS011;39333;47.044;15.080;2022-08-19T09:02:47;65.85;;;63.05;;
53439;SDS011;39333;47.044;15.080;2022-08-19T09:05:16;71.32;;;68.28;;
53439;SDS011;39333;47.044;15.080;2022-08-19T09:10:39;65.65;;;63.03;;
53439;SDS011;39333;47.044;15.080;2022-08-19T09:18:39;67.18;;;64.47;;
53439;SDS011;39333;47.044;15.080;2022-08-19T09:21:14;68.85;;;65.85;;
53439;SDS011;39333;47.044;15.080;2022-08-19T09:23:42;68.35;;;65.57;;
53439;SDS011;39333;47.044;15.080;2022-08-19T09:26:11;67.63;;;64.72;;
53439;SDS011;39333;47.044;15.080;2022-08-19T09:28:42;73.32;;;70.30;;
53439;SDS011;39333;47.044;15.080;2022-08-19T09:31:15;67.75;;;65.03;;
53439;SDS011;39333;47.044;15.080;2022-08-19T09:33:44;74.20;;;71.10;;
53439;SDS011;39333;47.044;15.080;2022-08-19T09:36:12;68.03;;;65.13;;
53439;SDS011;39333;47.044;15.080;2022-08-19T09:38:59;68.13;;;65.13;;
53439;SDS011;39333;47.044;15.080;2022-08-19T09:41:27;67.47;;;64.65;;
53439;SDS011;39333;47.044;15.080;2022-08-19T09:43:55;67.25;;;64.10;;
53439;SDS011;39333;47.044;15.080;2022-08-19T09:46:25;70.68;;;67.70;;
53439;SDS011;39333;47.044;15.080;2022-08-19T09:48:56;73.22;;;70.25;;
53439;SDS011;39333;47.044;15.080;2022-08-19T09:51:31;71.65;;;68.65;;
53439;SDS011;39333;47.044;15.080;2022-08-19T09:54:01;71.82;;;68.95;;
53439;SDS011;39333;47.044;15.080;2022-08-19T09:56:30;71.95;;;68.82;;
53439;SDS011;39333;47.044;15.080;2022-08-19T09:58:59;67.90;;;65.10;;
53439;SDS011;39333;47.044;15.080;2022-08-19T10:01:28;72.22;;;69.13;;
53439;SDS011;39333;47.044;15.080;2022-08-19T10:03:57;69.60;;;66.68;;
53439;SDS011;39333;47.044;15.080;2022-08-19T10:06:26;68.93;;;66.20;;
53439;SDS011;39333;47.044;15.080;2022-08-19T10:09:12;70.07;;;67.18;;
53439;SDS011;39333;47.044;15.080;2022-08-19T10:11:41;72.13;;;69.20;;
53439;SDS011;39333;47.044;15.080;2022-08-19T10:14:19;68.25;;;65.38;;
53439;SDS011;39333;47.044;15.080;2022-08-19T10:16:48;69.57;;;66.60;;
53439;SDS011;39333;47.044;15.080;2022-08-19T10:19:18;68.28;;;65.47;;
53439;SDS011;39333;47.044;15.080;2022-08-19T10:21:51;71.72;;;68.78;;
53439;SDS011;39333;47.044;15.080;2022-08-19T10:24:25;69.53;;;66.60;;
53439;SDS011;39333;47.044;15.080;2022-08-19T10:26:54;70.85;;;67.93;;
53439;SDS011;39333;47.044;15.080;2022-08-19T10:29:25;71.63;;;68.72;;
53439;SDS011;39333;47.044;15.080;2022-08-19T10:32:02;70.75;;;67.85;;
53439;SDS011;39333;47.044;15.080;2022-08-19T10:34:38;74.72;;;71.63;;
53439;SDS011;39333;47.044;15.080;2022-08-19T10:37:14;70.15;;;66.82;;
53439;SDS011;39333;47.044;15.080;2022-08-19T10:39:54;70.03;;;67.10;;
53439;SDS011;39333;47.044;15.080;2022-08-19T10:42:21;68.90;;;65.90;;
53439;SDS011;39333;47.044;15.080;2022-08-19T10:44:48;69.60;;;66.80;;
53439;SDS011;39333;47.044;15.080;2022-08-19T10:47:17;66.47;;;63.58;;
53439;SDS011;39333;47.044;15.080;2022-08-19T10:49:52;70.10;;;67.10;;
53439;SDS011;39333;47.044;15.080;2022-08-19T10:52:43;71.40;;;68.35;;
53439;SDS011;39333;47.044;15.080;2022-08-19T10:55:17;72.00;;;68.90;;
53439;SDS011;39333;47.044;15.080;2022-08-19T10:58:09;67.18;;;64.25;;
53439;SDS011;39333;47.044;15.080;2022-08-19T11:00:53;69.97;;;66.97;;
53439;SDS011;39333;47.044;15.080;2022-08-19T11:03:23;65.40;;;62.53;;
53439;SDS011;39333;47.044;15.080;2022-08-19T11:06:05;73.95;;;70.65;;
53439;SDS011;39333;47.044;15.080;2022-08-19T11:08:34;72.93;;;69.63;;
53439;SDS011;39333;47.044;15.080;2022-08-19T11:11:04;72.05;;;68.95;;
53439;SDS011;39333;47.044;15.080;2022-08-19T11:13:33;66.35;;;63.53;;
53439;SDS011;39333;47.044;15.080;2022-08-19T11:16:07;64.78;;;61.88;;
53439;SDS011;39333;47.044;15.080;2022-08-19T11:18:41;65.10;;;62.20;;
53439;SDS011;39333;47.044;15.080;2022-08-19T11:23:53;69.53;;;66.30;;
53439;SDS011;39333;47.044;15.080;2022-08-19T11:26:22;72.80;;;69.80;;
53439;SDS011;39333;47.044;15.080;2022-08-19T11:28:50;69.30;;;66.40;;
53439;SDS011;39333;47.044;15.080;2022-08-19T11:31:21;68.28;;;65.25;;
53439;SDS011;39333;47.044;15.080;2022-08-19T11:33:55;69.85;;;66.80;;
53439;SDS011;39333;47.044;15.080;2022-08-19T11:36:23;69.15;;;66.25;;
53439;SDS011;39333;47.044;15.080;2022-08-19T11:38:51;70.80;;;67.70;;
53439;SDS011;39333;47.044;15.080;2022-08-19T11:41:19;68.35;;;65.45;;
53439;SDS011;39333;47.044;15.080;2022-08-19T11:43:49;73.13;;;69.82;;
53439;SDS011;39333;47.044;15.080;2022-08-19T11:46:19;66.88;;;64.05;;
53439;SDS011;39333;47.044;15.080;2022-08-19T11:48:45;70.85;;;67.68;;
53439;SDS011;39333;47.044;15.080;2022-08-19T11:51:13;72.53;;;69.30;;
53439;SDS011;39333;47.044;15.080;2022-08-19T11:53:42;68.82;;;65.93;;
53439;SDS011;39333;47.044;15.080;2022-08-19T11:56:09;70.05;;;66.93;;
53439;SDS011;39333;47.044;15.080;2022-08-19T11:58:36;73.35;;;69.75;;
53439;SDS011;39333;47.044;15.080;2022-08-19T12:01:07;69.70;;;66.60;;
53439;SDS011;39333;47.044;15.080;2022-08-19T12:03:35;68.40;;;65.50;;
53439;SDS011;39333;47.044;15.080;2022-08-19T12:06:03;72.78;;;69.20;;
53439;SDS011;39333;47.044;15.080;2022-08-19T12:08:35;77.82;;;72.60;;
53439;SDS011;39333;47.044;15.080;2022-08-19T12:11:02;72.72;;;69.20;;
53439;SDS011;39333;47.044;15.080;2022-08-19T12:13:30;72.95;;;69.40;;
53439;SDS011;39333;47.044;15.080;2022-08-19T12:15:57;65.90;;;62.45;;
53439;SDS011;39333;47.044;15.080;2022-08-19T12:18:24;74.80;;;71.40;;
53439;SDS011;39333;47.044;15.080;2022-08-19T12:20:52;70.97;;;67.45;;
53439;SDS011;39333;47.044;15.080;2022-08-19T12:23:20;73.57;;;69.95;;
53439;SDS011;39333;47.044;15.080;2022-08-19T12:25:47;72.70;;;69.30;;
53439;SDS011;39333;47.044;15.080;2022-08-19T12:28:22;70.82;;;67.72;;
53439;SDS011;39333;47.044;15.080;2022-08-19T12:30:51;70.03;;;67.00;;
53439;SDS011;39333;47.044;15.080;2022-08-19T12:33:18;75.13;;;72.03;;
53439;SDS011;39333;47.044;15.080;2022-08-19T12:35:46;71.85;;;68.80;;
53439;SDS011;39333;47.044;15.080;2022-08-19T12:38:13;70.80;;;67.70;;
53439;SDS011;39333;47.044;15.080;2022-08-19T12:40:41;72.32;;;69.18;;
53439;SDS011;39333;47.044;15.080;2022-08-19T12:43:11;72.57;;;69.30;;
53439;SDS011;39333;47.044;15.080;2022-08-19T12:45:38;71.10;;;67.85;;
53439;SDS011;39333;47.044;15.080;2022-08-19T12:48:06;71.53;;;67.97;;
53439;SDS011;39333;47.044;15.080;2022-08-19T12:50:52;78.70;;;75.00;;
53439;SDS011;39333;47.044;15.080;2022-08-19T12:53:20;73.15;;;69.45;;
53439;SDS011;39333;47.044;15.080;2022-08-19T12:55:47;72.57;;;69.40;;
53439;SDS011;39333;47.044;15.080;2022-08-19T13:05:23;75.70;;;72.50;;
53439;SDS011;39333;47.044;15.080;2022-08-19T13:07:52;70.22;;;67.18;;
53439;SDS011;39333;47.044;15.080;2022-08-19T13:10:24;74.00;;;70.93;;
53439;SDS011;39333;47.044;15.080;2022-08-19T13:13:05;72.72;;;69.40;;
53439;SDS011;39333;47.044;15.080;2022-08-19T13:15:34;70.60;;;67.47;;
53439;SDS011;39333;47.044;15.080;2022-08-19T13:18:03;75.40;;;72.25;;
53439;SDS011;39333;47.044;15.080;2022-08-19T13:20:29;72.57;;;69.38;;
53439;SDS011;39333;47.044;15.080;2022-08-19T13:22:56;71.15;;;68.10;;
53439;SDS011;39333;47.044;15.080;2022-08-19T13:25:23;71.28;;;68.30;;
53439;SDS011;39333;47.044;15.080;2022-08-19T13:27:51;71.82;;;68.53;;
53439;SDS011;39333;47.044;15.080;2022-08-19T13:30:19;74.40;;;71.05;;
53439;SDS011;39333;47.044;15.080;2022-08-19T13:33:06;76.22;;;72.78;;
53439;SDS011;39333;47.044;15.080;2022-08-19T13:35:53;72.43;;;69.18;;
53439;SDS011;39333;47.044;15.080;2022-08-19T13:38:24;69.43;;;66.20;;
53439;SDS011;39333;47.044;15.080;2022-08-19T13:40:51;70.03;;;66.68;;
53439;SDS011;39333;47.044;15.080;2022-08-19T13:43:20;68.30;;;65.30;;
53439;SDS011;39333;47.044;15.080;2022-08-19T13:45:50;72.05;;;68.88;;
53439;SDS011;39333;47.044;15.080;2022-08-19T13:48:20;69.90;;;66.60;;
53439;SDS011;39333;47.044;15.080;2022-08-19T13:50:47;70.75;;;67.75;;
53439;SDS011;39333;47.044;15.080;2022-08-19T13:53:15;71.03;;;67.88;;
53439;SDS011;39333;47.044;15.080;2022-08-19T13:55:42;71.07;;;67.88;;
53439;SDS011;39333;47.044;15.080;2022-08-19T13:58:10;75.07;;;71.80;;
53439;SDS011;39333;47.044;15.080;2022-08-19T14:00:38;72.90;;;69.65;;
53439;SDS011;39333;47.044;15.080;2022-08-19T14:03:07;72.78;;;69.40;;
53439;SDS011;39333;47.044;15.080;2022-08-19T14:05:35;71.00;;;67.72;;
53439;SDS011;39333;47.044;15.080;2022-08-19T14:08:02;71.47;;;68.43;;
53439;SDS011;39333;47.044;15.080;2022-08-19T14:10:29;70.93;;;67.72;;
53439;SDS011;39333;47.044;15.080;2022-08-19T14:12:58;69.80;;;66.72;;
53439;SDS011;39333;47.044;15.080;2022-08-19T14:15:27;69.45;;;66.30;;
53439;SDS011;39333;47.044;15.080;2022-08-19T14:17:54;67.90;;;64.72;;
53439;SDS011;39333;47.044;15.080;2022-08-19T14:20:22;71.78;;;68.63;;
53439;SDS011;39333;47.044;15.080;2022-08-19T14:22:52;71.72;;;68.72;;
53439;SDS011;39333;47.044;15.080;2022-08-19T14:25:21;66.53;;;63.15;;
53439;SDS011;39333;47.044;15.080;2022-08-19T14:27:51;72.35;;;69.25;;
53439;SDS011;39333;47.044;15.080;2022-08-19T14:30:20;71.13;;;68.03;;
53439;SDS011;39333;47.044;15.080;2022-08-19T14:32:49;71.72;;;68.22;;
53439;SDS011;39333;47.044;15.080;2022-08-19T14:35:16;71.15;;;67.93;;
53439;SDS011;39333;47.044;15.080;2022-08-19T14:37:43;67.90;;;64.82;;
53439;SDS011;39333;47.044;15.080;2022-08-19T14:40:12;67.05;;;63.83;;
53439;SDS011;39333;47.044;15.080;2022-08-19T14:42:40;66.15;;;63.30;;
53439;SDS011;39333;47.044;15.080;2022-08-19T14:45:08;66.15;;;62.90;;
53439;SDS011;39333;47.044;15.080;2022-08-19T14:47:36;68.90;;;65.55;;
53439;SDS011;39333;47.044;15.080;2022-08-19T14:50:08;68.50;;;65.53;;
53439;SDS011;39333;47.044;15.080;2022-08-19T14:52:44;70.05;;;67.07;;